sensor_id;sensor_type;location;lat;lon;timestamp;pressure;altitude;pressure_sealevel;temperature;humidity
74973;BME280;63529;56.320;43.990;2022-10-16T00:00:39;100942.19;;;5.69;65.84
74973;BME280;63529;56.320;43.990;2022-10-16T00:03:05;100942.78;;;5.64;65.68
74973;BME280;63529;56.320;43.990;2022-10-16T00:05:33;100947.47;;;5.62;66.10
74973;BME280;63529;56.320;43.990;2022-10-16T00:07:59;100951.31;;;5.60;66.04
74973;BME280;63529;56.320;43.990;2022-10-16T00:10:25;100950.50;;;5.59;66.31
74973;BME280;63529;56.320;43.990;2022-10-16T00:12:51;100954.19;;;5.58;66.22
74973;BME280;63529;56.320;43.990;2022-10-16T00:15:16;100957.84;;;5.57;66.38
74973;BME280;63529;56.320;43.990;2022-10-16T00:17:43;100948.50;;;5.55;66.23
74973;BME280;63529;56.320;43.990;2022-10-16T00:20:09;100953.97;;;5.53;66.54
74973;BME280;63529;56.320;43.990;2022-10-16T00:22:53;100955.19;;;5.51;66.24
74973;BME280;63529;56.320;43.990;2022-10-16T00:25:19;100951.94;;;5.49;66.72
74973;BME280;63529;56.320;43.990;2022-10-16T00:27:45;100948.47;;;5.48;66.77
74973;BME280;63529;56.320;43.990;2022-10-16T00:30:11;100953.94;;;5.47;66.78
74973;BME280;63529;56.320;43.990;2022-10-16T00:32:37;100960.06;;;5.47;66.98
74973;BME280;63529;56.320;43.990;2022-10-16T00:35:03;100961.09;;;5.46;66.73
74973;BME280;63529;56.320;43.990;2022-10-16T00:37:29;100968.41;;;5.44;66.97
74973;BME280;63529;56.320;43.990;2022-10-16T00:39:55;100969.66;;;5.41;67.25
74973;BME280;63529;56.320;43.990;2022-10-16T00:42:22;100968.81;;;5.41;67.33
74973;BME280;63529;56.320;43.990;2022-10-16T00:44:53;100969.41;;;5.36;67.17
74973;BME280;63529;56.320;43.990;2022-10-16T00:47:29;100974.28;;;5.33;67.24
74973;BME280;63529;56.320;43.990;2022-10-16T00:50:00;100972.88;;;5.30;67.68
74973;BME280;63529;56.320;43.990;2022-10-16T00:52:28;100976.91;;;5.26;67.55
74973;BME280;63529;56.320;43.990;2022-10-16T00:54:55;100970.41;;;5.22;67.70
74973;BME280;63529;56.320;43.990;2022-10-16T00:57:22;100970.78;;;5.19;67.74
74973;BME280;63529;56.320;43.990;2022-10-16T00:59:48;100972.00;;;5.16;68.04
74973;BME280;63529;56.320;43.990;2022-10-16T01:02:15;100981.78;;;5.16;67.99
74973;BME280;63529;56.320;43.990;2022-10-16T01:04:44;100979.50;;;5.13;68.16
74973;BME280;63529;56.320;43.990;2022-10-16T01:07:24;100974.22;;;5.13;68.16
74973;BME280;63529;56.320;43.990;2022-10-16T01:20:45;100985.56;;;5.00;68.39
74973;BME280;63529;56.320;43.990;2022-10-16T01:25:59;100983.69;;;4.94;68.78
74973;BME280;63529;56.320;43.990;2022-10-16T01:28:36;100982.06;;;4.93;69.08
74973;BME280;63529;56.320;43.990;2022-10-16T01:31:04;100985.72;;;4.92;69.18
74973;BME280;63529;56.320;43.990;2022-10-16T01:33:42;100984.31;;;4.89;69.13
74973;BME280;63529;56.320;43.990;2022-10-16T01:36:37;100980.66;;;4.90;69.64
74973;BME280;63529;56.320;43.990;2022-10-16T01:39:04;100987.38;;;4.93;69.60
74973;BME280;63529;56.320;43.990;2022-10-16T01:41:40;100985.72;;;4.92;69.30
74973;BME280;63529;56.320;43.990;2022-10-16T01:44:10;100980.44;;;4.92;70.03
74973;BME280;63529;56.320;43.990;2022-10-16T01:46:39;100979.44;;;4.93;69.39
74973;BME280;63529;56.320;43.990;2022-10-16T01:49:08;100989.19;;;4.93;69.09
74973;BME280;63529;56.320;43.990;2022-10-16T01:51:36;100989.19;;;4.93;69.54
74973;BME280;63529;56.320;43.990;2022-10-16T01:54:05;100993.66;;;4.92;69.65
74973;BME280;63529;56.320;43.990;2022-10-16T01:56:34;100985.72;;;4.92;69.65
74973;BME280;63529;56.320;43.990;2022-10-16T01:59:12;100991.63;;;4.94;69.91
74973;BME280;63529;56.320;43.990;2022-10-16T02:01:41;100991.88;;;4.99;70.06
74973;BME280;63529;56.320;43.990;2022-10-16T02:04:13;100991.66;;;5.01;69.77
74973;BME280;63529;56.320;43.990;2022-10-16T02:06:41;101000.66;;;5.06;70.00
74973;BME280;63529;56.320;43.990;2022-10-16T02:09:07;100995.97;;;5.08;69.95
74973;BME280;63529;56.320;43.990;2022-10-16T02:11:32;101001.28;;;5.15;69.84
74973;BME280;63529;56.320;43.990;2022-10-16T02:14:02;100998.06;;;5.20;70.09
74973;BME280;63529;56.320;43.990;2022-10-16T02:16:41;100999.53;;;5.29;70.04
74973;BME280;63529;56.320;43.990;2022-10-16T02:19:13;101004.03;;;5.35;69.85
74973;BME280;63529;56.320;43.990;2022-10-16T02:21:56;101002.59;;;5.39;69.35
74973;BME280;63529;56.320;43.990;2022-10-16T02:27:30;101007.34;;;5.50;69.52
74973;BME280;63529;56.320;43.990;2022-10-16T02:30:13;101011.03;;;5.56;69.82
74973;BME280;63529;56.320;43.990;2022-10-16T02:32:42;100999.81;;;5.60;69.36
74973;BME280;63529;56.320;43.990;2022-10-16T02:35:10;101003.91;;;5.63;69.37
74973;BME280;63529;56.320;43.990;2022-10-16T02:37:38;101007.59;;;5.68;69.23
74973;BME280;63529;56.320;43.990;2022-10-16T02:40:05;101015.13;;;5.71;69.28
74973;BME280;63529;56.320;43.990;2022-10-16T02:42:34;101011.47;;;5.72;69.18
74973;BME280;63529;56.320;43.990;2022-10-16T02:45:01;101019.41;;;5.72;69.25
74973;BME280;63529;56.320;43.990;2022-10-16T02:47:27;101013.28;;;5.72;69.10
74973;BME280;63529;56.320;43.990;2022-10-16T02:49:53;101009.81;;;5.71;69.09
74973;BME280;63529;56.320;43.990;2022-10-16T02:52:19;101016.75;;;5.72;69.22
74973;BME280;63529;56.320;43.990;2022-10-16T02:54:44;101008.81;;;5.72;69.15
74973;BME280;63529;56.320;43.990;2022-10-16T02:57:10;101013.28;;;5.72;68.90
74973;BME280;63529;56.320;43.990;2022-10-16T02:59:37;101013.72;;;5.76;69.11
74973;BME280;63529;56.320;43.990;2022-10-16T03:02:03;101019.63;;;5.78;68.91
74973;BME280;63529;56.320;43.990;2022-10-16T03:04:29;101019.25;;;5.81;69.50
74973;BME280;63529;56.320;43.990;2022-10-16T03:06:55;101020.66;;;5.83;69.05
74973;BME280;63529;56.320;43.990;2022-10-16T03:09:21;101017.59;;;5.86;69.21
74973;BME280;63529;56.320;43.990;2022-10-16T03:11:47;101022.31;;;5.91;69.12
74973;BME280;63529;56.320;43.990;2022-10-16T03:14:13;101018.25;;;5.95;69.20
74973;BME280;63529;56.320;43.990;2022-10-16T03:16:39;101022.34;;;5.97;68.99
74973;BME280;63529;56.320;43.990;2022-10-16T03:19:05;101029.09;;;6.07;68.89
74973;BME280;63529;56.320;43.990;2022-10-16T03:21:31;101020.50;;;6.11;68.95
74973;BME280;63529;56.320;43.990;2022-10-16T03:23:57;101023.97;;;6.18;68.74
74973;BME280;63529;56.320;43.990;2022-10-16T03:26:23;101027.66;;;6.24;68.40
74973;BME280;63529;56.320;43.990;2022-10-16T03:28:48;101022.56;;;6.29;68.41
74973;BME280;63529;56.320;43.990;2022-10-16T03:31:14;101028.06;;;6.34;68.22
74973;BME280;63529;56.320;43.990;2022-10-16T03:33:40;101030.72;;;6.41;68.24
74973;BME280;63529;56.320;43.990;2022-10-16T03:36:06;101033.75;;;6.44;68.14
74973;BME280;63529;56.320;43.990;2022-10-16T03:38:32;101028.88;;;6.48;67.84
74973;BME280;63529;56.320;43.990;2022-10-16T03:40:58;101029.91;;;6.53;67.89
74973;BME280;63529;56.320;43.990;2022-10-16T03:43:24;101025.78;;;6.58;67.77
74973;BME280;63529;56.320;43.990;2022-10-16T03:45:50;101036.59;;;6.63;67.76
74973;BME280;63529;56.320;43.990;2022-10-16T03:48:18;101039.88;;;6.65;67.49
74973;BME280;63529;56.320;43.990;2022-10-16T03:50:44;101034.16;;;6.68;67.38
74973;BME280;63529;56.320;43.990;2022-10-16T03:53:11;101037.41;;;6.70;67.30
74973;BME280;63529;56.320;43.990;2022-10-16T03:55:37;101039.84;;;6.71;67.29
74973;BME280;63529;56.320;43.990;2022-10-16T03:58:03;101042.72;;;6.76;67.31
74973;BME280;63529;56.320;43.990;2022-10-16T04:00:29;101044.97;;;6.79;67.30
74973;BME280;63529;56.320;43.990;2022-10-16T04:02:55;101045.97;;;6.85;67.08
74973;BME280;63529;56.320;43.990;2022-10-16T04:05:21;101042.69;;;6.90;66.98
74973;BME280;63529;56.320;43.990;2022-10-16T04:07:47;101043.31;;;6.92;66.89
74973;BME280;63529;56.320;43.990;2022-10-16T04:10:12;101045.13;;;6.98;66.75
74973;BME280;63529;56.320;43.990;2022-10-16T04:12:38;101052.44;;;7.02;66.64
74973;BME280;63529;56.320;43.990;2022-10-16T04:15:04;101061.44;;;7.08;66.68
74973;BME280;63529;56.320;43.990;2022-10-16T04:17:30;101055.50;;;7.13;66.31
74973;BME280;63529;56.320;43.990;2022-10-16T04:19:56;101059.34;;;7.17;66.21
74973;BME280;63529;56.320;43.990;2022-10-16T04:22:22;101056.88;;;7.22;66.13
74973;BME280;63529;56.320;43.990;2022-10-16T04:24:48;101058.94;;;7.26;65.71
74973;BME280;63529;56.320;43.990;2022-10-16T04:27:14;101066.28;;;7.31;65.81
74973;BME280;63529;56.320;43.990;2022-10-16T04:29:40;101056.25;;;7.33;65.70
74973;BME280;63529;56.320;43.990;2022-10-16T04:32:08;101059.28;;;7.37;65.58
74973;BME280;63529;56.320;43.990;2022-10-16T04:34:34;101052.31;;;7.42;65.58
74973;BME280;63529;56.320;43.990;2022-10-16T04:37:00;101053.13;;;7.43;64.94
74973;BME280;63529;56.320;43.990;2022-10-16T04:39:26;101054.38;;;7.40;64.89
74973;BME280;63529;56.320;43.990;2022-10-16T04:41:52;101054.56;;;7.45;65.20
74973;BME280;63529;56.320;43.990;2022-10-16T04:44:17;101060.81;;;7.64;65.10
74973;BME280;63529;56.320;43.990;2022-10-16T04:46:43;101058.00;;;7.91;64.30
74973;BME280;63529;56.320;43.990;2022-10-16T04:49:10;101059.50;;;8.11;63.64
74973;BME280;63529;56.320;43.990;2022-10-16T04:51:35;101062.06;;;8.25;63.29
74973;BME280;63529;56.320;43.990;2022-10-16T04:54:01;101050.41;;;8.26;62.86
74973;BME280;63529;56.320;43.990;2022-10-16T04:56:27;101053.69;;;8.21;62.70
74973;BME280;63529;56.320;43.990;2022-10-16T04:58:53;101056.78;;;8.18;62.75
74973;BME280;63529;56.320;43.990;2022-10-16T05:01:19;101061.84;;;8.26;62.77
74973;BME280;63529;56.320;43.990;2022-10-16T05:03:45;101072.06;;;8.29;62.59
74973;BME280;63529;56.320;43.990;2022-10-16T05:06:11;101072.72;;;8.25;62.41
74973;BME280;63529;56.320;43.990;2022-10-16T05:08:37;101081.78;;;8.17;62.52
74973;BME280;63529;56.320;43.990;2022-10-16T05:11:03;101085.09;;;8.06;62.49
74973;BME280;63529;56.320;43.990;2022-10-16T05:13:29;101085.38;;;7.98;62.82
74973;BME280;63529;56.320;43.990;2022-10-16T05:15:55;101081.31;;;7.88;62.90
74973;BME280;63529;56.320;43.990;2022-10-16T05:18:21;101084.00;;;7.82;62.94
74973;BME280;63529;56.320;43.990;2022-10-16T05:20:46;101084.84;;;7.82;63.23
74973;BME280;63529;56.320;43.990;2022-10-16T05:23:12;101082.75;;;7.91;63.23
74973;BME280;63529;56.320;43.990;2022-10-16T05:25:38;101085.53;;;8.03;62.96
74973;BME280;63529;56.320;43.990;2022-10-16T05:28:04;101083.97;;;8.20;62.72
74973;BME280;63529;56.320;43.990;2022-10-16T05:30:30;101092.47;;;8.42;62.44
74973;BME280;63529;56.320;43.990;2022-10-16T05:32:56;101085.44;;;8.73;61.96
74973;BME280;63529;56.320;43.990;2022-10-16T05:35:22;101099.78;;;9.15;61.32
74973;BME280;63529;56.320;43.990;2022-10-16T05:37:48;101087.72;;;10.39;59.47
74973;BME280;63529;56.320;43.990;2022-10-16T05:40:13;101085.19;;;13.78;53.44
74973;BME280;63529;56.320;43.990;2022-10-16T05:42:40;101081.78;;;16.20;47.45
74973;BME280;63529;56.320;43.990;2022-10-16T05:45:07;101087.56;;;17.94;44.14
74973;BME280;63529;56.320;43.990;2022-10-16T05:47:34;101078.47;;;20.10;40.58
74973;BME280;63529;56.320;43.990;2022-10-16T05:50:00;101081.41;;;22.42;36.88
74973;BME280;63529;56.320;43.990;2022-10-16T05:52:27;101083.63;;;24.72;33.45
74973;BME280;63529;56.320;43.990;2022-10-16T05:54:53;101087.03;;;26.41;31.40
74973;BME280;63529;56.320;43.990;2022-10-16T05:57:20;101089.06;;;26.11;31.33
74973;BME280;63529;56.320;43.990;2022-10-16T05:59:46;101104.72;;;25.90;31.46
74973;BME280;63529;56.320;43.990;2022-10-16T06:02:15;101106.00;;;26.25;30.55
74973;BME280;63529;56.320;43.990;2022-10-16T06:04:41;101099.34;;;24.75;31.92
74973;BME280;63529;56.320;43.990;2022-10-16T06:07:07;101094.84;;;23.41;33.46
74973;BME280;63529;56.320;43.990;2022-10-16T06:09:33;101098.13;;;22.27;35.01
74973;BME280;63529;56.320;43.990;2022-10-16T06:11:59;101105.06;;;23.26;34.19
74973;BME280;63529;56.320;43.990;2022-10-16T06:14:25;101094.88;;;23.58;33.32
74973;BME280;63529;56.320;43.990;2022-10-16T06:16:51;101095.09;;;23.13;33.46
74973;BME280;63529;56.320;43.990;2022-10-16T06:19:17;101102.28;;;23.09;33.51
74973;BME280;63529;56.320;43.990;2022-10-16T06:21:44;101104.50;;;22.45;33.57
74973;BME280;63529;56.320;43.990;2022-10-16T06:24:10;101105.53;;;21.63;34.45
74973;BME280;63529;56.320;43.990;2022-10-16T06:26:37;101107.38;;;20.52;35.74
74973;BME280;63529;56.320;43.990;2022-10-16T06:29:03;101110.84;;;19.40;37.06
74973;BME280;63529;56.320;43.990;2022-10-16T06:31:29;101103.22;;;18.31;38.52
74973;BME280;63529;56.320;43.990;2022-10-16T06:33:58;101118.06;;;17.34;39.84
74973;BME280;63529;56.320;43.990;2022-10-16T06:36:25;101107.94;;;16.50;41.03
74973;BME280;63529;56.320;43.990;2022-10-16T06:38:51;101110.78;;;15.77;42.38
74973;BME280;63529;56.320;43.990;2022-10-16T06:41:19;101110.53;;;15.21;43.48
74973;BME280;63529;56.320;43.990;2022-10-16T06:43:46;101111.88;;;14.76;44.13
74973;BME280;63529;56.320;43.990;2022-10-16T06:46:14;101103.25;;;14.42;44.74
74973;BME280;63529;56.320;43.990;2022-10-16T06:48:40;101109.22;;;14.17;45.46
74973;BME280;63529;56.320;43.990;2022-10-16T06:53:34;101120.09;;;13.78;46.29
74973;BME280;63529;56.320;43.990;2022-10-16T06:56:11;101112.88;;;13.57;46.53
74973;BME280;63529;56.320;43.990;2022-10-16T06:58:38;101112.84;;;13.35;47.03
74973;BME280;63529;56.320;43.990;2022-10-16T07:01:05;101107.19;;;13.15;47.34
74973;BME280;63529;56.320;43.990;2022-10-16T07:03:31;101113.06;;;12.95;48.10
74973;BME280;63529;56.320;43.990;2022-10-16T07:06:01;101113.31;;;12.76;48.32
74973;BME280;63529;56.320;43.990;2022-10-16T07:08:27;101107.06;;;12.71;48.52
74973;BME280;63529;56.320;43.990;2022-10-16T07:11:07;101111.16;;;12.73;48.50
74973;BME280;63529;56.320;43.990;2022-10-16T07:13:35;101106.44;;;12.81;48.53
74973;BME280;63529;56.320;43.990;2022-10-16T07:16:19;101114.13;;;12.94;48.25
74973;BME280;63529;56.320;43.990;2022-10-16T07:18:45;101113.16;;;13.00;48.05
74973;BME280;63529;56.320;43.990;2022-10-16T07:21:15;101113.53;;;13.09;48.00
74973;BME280;63529;56.320;43.990;2022-10-16T07:23:41;101121.50;;;13.20;47.68
74973;BME280;63529;56.320;43.990;2022-10-16T07:26:07;101118.81;;;13.20;47.51
74973;BME280;63529;56.320;43.990;2022-10-16T07:28:34;101118.81;;;13.03;47.58
74973;BME280;63529;56.320;43.990;2022-10-16T07:31:07;101119.28;;;12.79;48.19
74973;BME280;63529;56.320;43.990;2022-10-16T07:33:36;101123.78;;;13.99;47.73
74973;BME280;63529;56.320;43.990;2022-10-16T07:36:03;101125.88;;;17.36;42.85
74973;BME280;63529;56.320;43.990;2022-10-16T07:38:29;101122.13;;;20.93;37.09
74973;BME280;63529;56.320;43.990;2022-10-16T07:41:03;101117.06;;;23.82;32.89
74973;BME280;63529;56.320;43.990;2022-10-16T07:43:30;101118.38;;;26.11;30.36
74973;BME280;63529;56.320;43.990;2022-10-16T07:45:57;101114.72;;;27.83;28.57
74973;BME280;63529;56.320;43.990;2022-10-16T07:48:24;101120.94;;;29.27;27.10
74973;BME280;63529;56.320;43.990;2022-10-16T07:50:52;101128.75;;;30.53;25.87
74973;BME280;63529;56.320;43.990;2022-10-16T07:53:17;101125.69;;;31.27;24.98
74973;BME280;63529;56.320;43.990;2022-10-16T07:55:43;101123.50;;;31.67;23.91
74973;BME280;63529;56.320;43.990;2022-10-16T07:58:09;101123.06;;;31.95;23.44
74973;BME280;63529;56.320;43.990;2022-10-16T08:00:36;101120.75;;;32.30;23.57
74973;BME280;63529;56.320;43.990;2022-10-16T08:03:02;101128.13;;;32.93;22.89
74973;BME280;63529;56.320;43.990;2022-10-16T08:05:30;101124.41;;;33.30;22.14
74973;BME280;63529;56.320;43.990;2022-10-16T08:07:56;101117.91;;;33.60;21.80
74973;BME280;63529;56.320;43.990;2022-10-16T08:10:24;101119.19;;;33.80;21.51
74973;BME280;63529;56.320;43.990;2022-10-16T08:12:51;101119.25;;;33.91;20.72
74973;BME280;63529;56.320;43.990;2022-10-16T08:15:17;101120.84;;;33.95;21.18
74973;BME280;63529;56.320;43.990;2022-10-16T08:17:43;101116.84;;;33.89;20.62
74973;BME280;63529;56.320;43.990;2022-10-16T08:20:10;101119.97;;;33.84;21.01
74973;BME280;63529;56.320;43.990;2022-10-16T08:22:36;101113.78;;;34.16;21.07
74973;BME280;63529;56.320;43.990;2022-10-16T08:25:02;101123.38;;;34.47;20.63
74973;BME280;63529;56.320;43.990;2022-10-16T08:27:32;101124.22;;;34.65;20.17
74973;BME280;63529;56.320;43.990;2022-10-16T08:29:58;101121.81;;;34.74;20.34
74973;BME280;63529;56.320;43.990;2022-10-16T08:32:24;101121.44;;;34.79;20.26
74973;BME280;63529;56.320;43.990;2022-10-16T08:34:50;101119.47;;;35.05;20.08
74973;BME280;63529;56.320;43.990;2022-10-16T08:37:16;101112.72;;;35.24;19.85
74973;BME280;63529;56.320;43.990;2022-10-16T08:39:42;101117.06;;;35.28;19.65
74973;BME280;63529;56.320;43.990;2022-10-16T08:42:34;101115.06;;;35.36;19.53
74973;BME280;63529;56.320;43.990;2022-10-16T08:50:43;101112.22;;;34.25;19.78
74973;BME280;63529;56.320;43.990;2022-10-16T08:53:43;101114.22;;;31.52;21.49
74973;BME280;63529;56.320;43.990;2022-10-16T08:56:10;101110.84;;;29.00;23.63
74973;BME280;63529;56.320;43.990;2022-10-16T08:58:36;101104.84;;;27.29;25.15
74973;BME280;63529;56.320;43.990;2022-10-16T09:01:04;101109.84;;;25.91;26.73
74973;BME280;63529;56.320;43.990;2022-10-16T09:03:40;101108.66;;;24.74;27.98
74973;BME280;63529;56.320;43.990;2022-10-16T09:14:57;101109.31;;;20.66;32.77
74973;BME280;63529;56.320;43.990;2022-10-16T09:23:10;101106.56;;;18.52;35.80
74973;BME280;63529;56.320;43.990;2022-10-16T09:25:39;101110.47;;;18.01;36.71
74973;BME280;63529;56.320;43.990;2022-10-16T09:28:07;101113.63;;;17.59;37.45
74973;BME280;63529;56.320;43.990;2022-10-16T09:30:34;101115.69;;;17.23;38.20
74973;BME280;63529;56.320;43.990;2022-10-16T09:33:00;101113.59;;;16.89;39.01
74973;BME280;63529;56.320;43.990;2022-10-16T09:35:42;101116.28;;;16.53;39.85
74973;BME280;63529;56.320;43.990;2022-10-16T09:38:08;101107.66;;;16.26;40.32
74973;BME280;63529;56.320;43.990;2022-10-16T09:40:46;101116.78;;;15.99;40.83
74973;BME280;63529;56.320;43.990;2022-10-16T09:43:24;101111.31;;;15.74;41.60
74973;BME280;63529;56.320;43.990;2022-10-16T09:46:02;101108.81;;;15.52;42.07
74973;BME280;63529;56.320;43.990;2022-10-16T09:48:37;101117.59;;;15.32;42.81
74973;BME280;63529;56.320;43.990;2022-10-16T09:51:06;101106.19;;;15.15;43.32
74973;BME280;63529;56.320;43.990;2022-10-16T09:53:44;101111.25;;;15.01;43.77
74973;BME280;63529;56.320;43.990;2022-10-16T09:56:12;101116.00;;;14.89;44.14
74973;BME280;63529;56.320;43.990;2022-10-16T09:59:19;101111.59;;;14.78;44.63
74973;BME280;63529;56.320;43.990;2022-10-16T10:01:40;101112.06;;;14.64;44.52
74973;BME280;63529;56.320;43.990;2022-10-16T10:04:07;101115.72;;;14.53;44.73
74973;BME280;63529;56.320;43.990;2022-10-16T10:06:36;101111.88;;;14.44;44.94
74973;BME280;63529;56.320;43.990;2022-10-16T10:14:22;101114.59;;;14.17;45.75
74973;BME280;63529;56.320;43.990;2022-10-16T10:16:48;101107.81;;;14.09;45.97
74973;BME280;63529;56.320;43.990;2022-10-16T10:21:41;101105.00;;;13.99;46.45
74973;BME280;63529;56.320;43.990;2022-10-16T10:24:12;101103.88;;;13.95;46.67
74973;BME280;63529;56.320;43.990;2022-10-16T10:26:49;101098.22;;;13.92;46.79
74973;BME280;63529;56.320;43.990;2022-10-16T10:35:21;101101.84;;;13.80;46.90
74973;BME280;63529;56.320;43.990;2022-10-16T10:46:57;101100.50;;;13.78;47.54
74973;BME280;63529;56.320;43.990;2022-10-16T10:49:40;101097.63;;;13.63;47.72
74973;BME280;63529;56.320;43.990;2022-10-16T10:57:46;101097.69;;;13.46;48.19
74973;BME280;63529;56.320;43.990;2022-10-16T11:01:01;101094.75;;;13.47;48.11
74973;BME280;63529;56.320;43.990;2022-10-16T11:06:43;101108.78;;;13.54;48.11
74973;BME280;63529;56.320;43.990;2022-10-16T11:09:17;101103.75;;;13.58;48.28
74973;BME280;63529;56.320;43.990;2022-10-16T11:11:49;101101.06;;;13.58;48.28
74973;BME280;63529;56.320;43.990;2022-10-16T11:14:20;101113.41;;;13.59;48.23
74973;BME280;63529;56.320;43.990;2022-10-16T11:16:58;101105.84;;;13.56;48.00
74973;BME280;63529;56.320;43.990;2022-10-16T11:19:51;101118.16;;;13.52;47.82
74973;BME280;63529;56.320;43.990;2022-10-16T11:22:33;101105.50;;;13.47;47.63
74973;BME280;63529;56.320;43.990;2022-10-16T11:30:32;101110.78;;;13.42;47.06
74973;BME280;63529;56.320;43.990;2022-10-16T11:35:44;101110.09;;;13.30;46.80
74973;BME280;63529;56.320;43.990;2022-10-16T11:41:08;101115.31;;;13.37;46.61
74973;BME280;63529;56.320;43.990;2022-10-16T11:43:42;101112.66;;;13.42;46.29
74973;BME280;63529;56.320;43.990;2022-10-16T11:46:16;101100.38;;;13.46;46.24
74973;BME280;63529;56.320;43.990;2022-10-16T11:49:19;101112.00;;;13.51;46.02
74973;BME280;63529;56.320;43.990;2022-10-16T11:54:52;101106.38;;;13.53;45.89
74973;BME280;63529;56.320;43.990;2022-10-16T11:59:55;101109.59;;;13.55;45.92
74973;BME280;63529;56.320;43.990;2022-10-16T12:08:15;101105.75;;;13.46;46.19
74973;BME280;63529;56.320;43.990;2022-10-16T12:10:44;101112.44;;;13.43;46.26
74973;BME280;63529;56.320;43.990;2022-10-16T12:13:39;101103.06;;;13.46;46.32
74973;BME280;63529;56.320;43.990;2022-10-16T12:18:38;101102.38;;;13.34;46.50
74973;BME280;63529;56.320;43.990;2022-10-16T12:21:05;101100.13;;;13.25;46.76
74973;BME280;63529;56.320;43.990;2022-10-16T12:23:36;101099.22;;;13.20;46.75
74973;BME280;63529;56.320;43.990;2022-10-16T12:26:03;101099.41;;;13.13;46.96
74973;BME280;63529;56.320;43.990;2022-10-16T12:28:31;101098.22;;;13.04;47.27
74973;BME280;63529;56.320;43.990;2022-10-16T12:31:04;101094.22;;;12.90;47.41
74973;BME280;63529;56.320;43.990;2022-10-16T12:33:33;101093.59;;;12.83;47.75
74973;BME280;63529;56.320;43.990;2022-10-16T12:36:02;101097.50;;;12.75;47.82
74973;BME280;63529;56.320;43.990;2022-10-16T12:38:37;101091.97;;;12.65;47.90
74973;BME280;63529;56.320;43.990;2022-10-16T12:41:06;101101.19;;;12.52;48.33
74973;BME280;63529;56.320;43.990;2022-10-16T12:43:42;101099.13;;;12.42;48.31
74973;BME280;63529;56.320;43.990;2022-10-16T12:48:38;101092.72;;;12.27;48.98
74973;BME280;63529;56.320;43.990;2022-10-16T12:59:22;101095.00;;;11.89;49.70
74973;BME280;63529;56.320;43.990;2022-10-16T13:10:06;101091.28;;;11.50;50.83
74973;BME280;63529;56.320;43.990;2022-10-16T13:18:16;101093.06;;;11.21;51.50
74973;BME280;63529;56.320;43.990;2022-10-16T13:21:03;101096.34;;;11.11;51.84
74973;BME280;63529;56.320;43.990;2022-10-16T13:23:41;101094.72;;;10.99;51.98
74973;BME280;63529;56.320;43.990;2022-10-16T13:26:41;101101.47;;;10.90;52.24
74973;BME280;63529;56.320;43.990;2022-10-16T13:29:09;101095.88;;;10.79;52.58
74973;BME280;63529;56.320;43.990;2022-10-16T13:31:38;101098.91;;;10.71;52.79
74973;BME280;63529;56.320;43.990;2022-10-16T13:34:05;101102.75;;;10.64;52.95
74973;BME280;63529;56.320;43.990;2022-10-16T13:36:44;101097.28;;;10.58;53.23
74973;BME280;63529;56.320;43.990;2022-10-16T13:39:28;101105.63;;;10.50;53.41
74973;BME280;63529;56.320;43.990;2022-10-16T13:42:09;101102.81;;;10.45;53.60
74973;BME280;63529;56.320;43.990;2022-10-16T13:44:46;101110.13;;;10.38;53.78
74973;BME280;63529;56.320;43.990;2022-10-16T13:47:25;101109.41;;;10.31;53.88
74973;BME280;63529;56.320;43.990;2022-10-16T13:50:12;101103.78;;;10.21;54.22
74973;BME280;63529;56.320;43.990;2022-10-16T13:52:38;101106.53;;;10.14;54.20
74973;BME280;63529;56.320;43.990;2022-10-16T13:55:13;101105.00;;;10.06;54.58
74973;BME280;63529;56.320;43.990;2022-10-16T13:57:40;101108.59;;;10.00;54.74
74973;BME280;63529;56.320;43.990;2022-10-16T14:00:23;101108.91;;;9.92;54.99
74973;BME280;63529;56.320;43.990;2022-10-16T14:02:58;101100.75;;;9.87;55.08
74973;BME280;63529;56.320;43.990;2022-10-16T14:05:26;101110.47;;;9.82;55.37
74973;BME280;63529;56.320;43.990;2022-10-16T14:07:53;101111.38;;;9.75;55.63
74973;BME280;63529;56.320;43.990;2022-10-16T14:10:32;101111.47;;;9.69;55.90
74973;BME280;63529;56.320;43.990;2022-10-16T14:13:03;101110.50;;;9.63;55.89
74973;BME280;63529;56.320;43.990;2022-10-16T14:15:32;101112.19;;;9.58;56.21
74973;BME280;63529;56.320;43.990;2022-10-16T14:17:59;101113.94;;;9.52;56.54
74973;BME280;63529;56.320;43.990;2022-10-16T14:20:28;101116.22;;;9.48;56.66
74973;BME280;63529;56.320;43.990;2022-10-16T14:25:52;101110.59;;;9.38;56.92
74973;BME280;63529;56.320;43.990;2022-10-16T14:28:20;101104.66;;;9.36;57.14
74973;BME280;63529;56.320;43.990;2022-10-16T14:36:04;101111.94;;;9.29;57.70
74973;BME280;63529;56.320;43.990;2022-10-16T14:38:31;101105.41;;;9.25;57.68
74973;BME280;63529;56.320;43.990;2022-10-16T14:40:59;101105.84;;;9.22;58.24
74973;BME280;63529;56.320;43.990;2022-10-16T14:43:49;101116.75;;;9.20;58.48
74973;BME280;63529;56.320;43.990;2022-10-16T14:46:20;101110.81;;;9.18;58.68
74973;BME280;63529;56.320;43.990;2022-10-16T14:48:49;101109.41;;;9.16;58.86
74973;BME280;63529;56.320;43.990;2022-10-16T14:51:18;101110.88;;;9.12;59.14
74973;BME280;63529;56.320;43.990;2022-10-16T14:53:45;101105.19;;;9.08;59.27
74973;BME280;63529;56.320;43.990;2022-10-16T14:56:19;101110.94;;;9.05;59.39
74973;BME280;63529;56.320;43.990;2022-10-16T14:58:47;101107.91;;;9.02;59.51
74973;BME280;63529;56.320;43.990;2022-10-16T15:01:13;101111.00;;;8.98;59.96
74973;BME280;63529;56.320;43.990;2022-10-16T15:03:39;101117.59;;;8.96;60.01
74973;BME280;63529;56.320;43.990;2022-10-16T15:06:10;101114.75;;;8.91;60.41